Time;durP1;ratioP1;P1;durP2;ratioP2;P2;SDS_P1;SDS_P2;PMS_P1;PMS_P2;Temp;Humidity;BMP_temperature;BMP_pressure;BME280_temperature;BME280_humidity;BME280_pressure;Samples;Min_cycle;Max_cycle;Signal;HPM_P1;HPM_P2
2021/12/11 00:00:38;;;;;;;4.95;0.98;;;;;;;;;;4989386;28;20686;-85
2021/12/11 00:03:13;;;;;;;2.33;0.60;;;;;;;;;;5006577;28;20045;-85
2021/12/11 00:05:47;;;;;;;2.40;0.85;;;;;;;;;;4994314;28;20449;-85
2021/12/11 00:08:15;;;;;;;4.43;0.80;;;;;;;;;;4994249;28;20401;-85
2021/12/11 00:10:45;;;;;;;3.00;0.75;;;;;;;;;;4994121;28;20030;-85
2021/12/11 00:13:14;;;;;;;1.83;0.60;;;;;;;;;;4994209;28;20038;-85
2021/12/11 00:15:42;;;;;;;2.72;0.70;;;;;;;;;;4991461;28;20039;-85
2021/12/11 00:18:12;;;;;;;2.88;0.88;;;;;;;;;;4974383;28;20387;-85
2021/12/11 00:20:41;;;;;;;3.63;0.90;;;;;;;;;;4974604;28;20039;-85
2021/12/11 00:23:07;;;;;;;3.85;0.93;;;;;;;;;;4974695;28;20035;-85
2021/12/11 00:25:40;;;;;;;3.45;1.08;;;;;;;;;;4977850;28;20041;-85
2021/12/11 00:28:11;;;;;;;10.50;1.38;;;;;;;;;;4993904;28;20398;-85
2021/12/11 00:30:39;;;;;;;4.60;1.30;;;;;;;;;;4993805;28;20042;-85
2021/12/11 00:33:17;;;;;;;3.53;0.93;;;;;;;;;;4984243;28;20663;-84
2021/12/11 00:35:44;;;;;;;5.00;1.13;;;;;;;;;;4984922;28;20034;-85
2021/12/11 00:38:12;;;;;;;6.10;1.70;;;;;;;;;;4988747;28;20059;-85
2021/12/11 00:40:40;;;;;;;5.55;1.15;;;;;;;;;;4990395;28;20050;-85
2021/12/11 00:43:17;;;;;;;7.13;1.30;;;;;;;;;;4993944;28;20476;-83
2021/12/11 00:45:52;;;;;;;6.88;1.02;;;;;;;;;;4993782;28;20066;-83
2021/12/11 00:48:46;;;;;;;4.72;1.45;;;;;;;;;;4986630;28;20058;-84
2021/12/11 00:51:17;;;;;;;8.57;1.42;;;;;;;;;;4979367;28;20380;-84
2021/12/11 00:53:49;;;;;;;6.78;1.52;;;;;;;;;;4992848;28;20465;-83
2021/12/11 00:56:18;;;;;;;3.92;1.05;;;;;;;;;;4990549;28;20446;-84
2021/12/11 00:58:55;;;;;;;4.90;1.08;;;;;;;;;;4976602;28;20041;-87
2021/12/11 01:01:26;;;;;;;3.53;0.80;;;;;;;;;;4992799;28;20482;-84
2021/12/11 01:03:56;;;;;;;3.63;0.80;;;;;;;;;;4984436;28;20041;-83
2021/12/11 01:06:41;;;;;;;4.10;0.70;;;;;;;;;;4989864;28;20042;-83
2021/12/11 01:09:09;;;;;;;3.40;0.77;;;;;;;;;;4973789;28;20037;-82
2021/12/11 01:11:41;;;;;;;3.15;1.27;;;;;;;;;;4976707;28;20042;-83
2021/12/11 01:14:32;;;;;;;2.92;0.70;;;;;;;;;;4989690;28;20037;-83
2021/12/11 01:17:06;;;;;;;3.90;1.10;;;;;;;;;;4973431;28;20033;-83
2021/12/11 01:19:37;;;;;;;2.92;0.90;;;;;;;;;;4988487;28;20518;-83
2021/12/11 01:22:20;;;;;;;3.17;0.90;;;;;;;;;;4994423;28;20128;-87
2021/12/11 01:24:52;;;;;;;11.63;3.25;;;;;;;;;;4994699;28;20499;-87
2021/12/11 01:27:23;;;;;;;33.20;8.93;;;;;;;;;;4990364;28;20503;-88
2021/12/11 01:29:50;;;;;;;30.40;8.75;;;;;;;;;;4993291;28;20062;-89
2021/12/11 01:32:31;;;;;;;19.95;5.75;;;;;;;;;;4990144;28;20171;-86
2021/12/11 01:34:59;;;;;;;28.75;7.65;;;;;;;;;;4977280;28;20118;-88
2021/12/11 01:37:31;;;;;;;25.35;6.90;;;;;;;;;;4994815;28;20535;-89
2021/12/11 01:39:57;;;;;;;36.38;9.23;;;;;;;;;;4987099;28;21609;-88
2021/12/11 01:42:33;;;;;;;30.67;8.77;;;;;;;;;;4993182;28;20374;-87
2021/12/11 01:45:01;;;;;;;17.20;4.55;;;;;;;;;;4990164;28;20034;-87
2021/12/11 01:47:30;;;;;;;17.70;6.43;;;;;;;;;;4987335;28;20429;-83
2021/12/11 01:50:02;;;;;;;21.00;7.57;;;;;;;;;;4991435;28;20125;-83
2021/12/11 01:52:37;;;;;;;17.20;6.45;;;;;;;;;;4992150;28;20126;-83
2021/12/11 01:55:25;;;;;;;16.20;5.75;;;;;;;;;;4993522;28;20095;-83
2021/12/11 01:57:53;;;;;;;11.15;4.20;;;;;;;;;;4992622;28;20081;-88
2021/12/11 02:00:34;;;;;;;14.13;5.00;;;;;;;;;;4989183;28;20039;-87
2021/12/11 02:03:03;;;;;;;17.85;6.53;;;;;;;;;;4980522;28;20035;-88
2021/12/11 02:05:33;;;;;;;17.63;6.20;;;;;;;;;;4984053;28;20043;-87
2021/12/11 02:08:01;;;;;;;16.70;5.90;;;;;;;;;;4992383;28;20073;-88
2021/12/11 02:10:41;;;;;;;12.75;5.25;;;;;;;;;;4991945;28;20096;-83
2021/12/11 02:13:10;;;;;;;12.55;5.30;;;;;;;;;;5005047;28;20031;-83
2021/12/11 02:15:43;;;;;;;13.45;5.05;;;;;;;;;;4972706;28;20043;-83
2021/12/11 02:18:43;;;;;;;12.00;4.40;;;;;;;;;;4982052;28;20057;-83
2021/12/11 02:21:15;;;;;;;13.07;5.20;;;;;;;;;;4993442;28;20114;-87
2021/12/11 02:23:45;;;;;;;15.75;4.93;;;;;;;;;;4994218;28;20058;-87
2021/12/11 02:26:21;;;;;;;11.50;4.82;;;;;;;;;;4991341;28;20411;-86
2021/12/11 02:29:09;;;;;;;17.00;7.93;;;;;;;;;;4991011;28;20092;-85
2021/12/11 02:31:46;;;;;;;21.40;9.88;;;;;;;;;;4974710;28;20038;-86
2021/12/11 02:34:18;;;;;;;13.70;7.68;;;;;;;;;;4992881;28;20117;-86
2021/12/11 02:36:48;;;;;;;15.52;7.38;;;;;;;;;;4981750;28;20038;-86
2021/12/11 02:42:07;;;;;;;14.27;6.28;;;;;;;;;;4990291;28;20453;-86
2021/12/11 02:44:43;;;;;;;15.13;5.22;;;;;;;;;;4979666;28;20117;-86
2021/12/11 02:47:16;;;;;;;13.90;6.40;;;;;;;;;;4986482;28;20088;-85
2021/12/11 02:50:10;;;;;;;17.30;4.85;;;;;;;;;;4990012;28;20491;-87
2021/12/11 02:53:14;;;;;;;11.75;5.35;;;;;;;;;;4989043;28;20050;-85
2021/12/11 02:55:58;;;;;;;16.35;6.22;;;;;;;;;;4948699;29;20039;-86
2021/12/11 02:58:30;;;;;;;20.33;7.70;;;;;;;;;;4986867;28;20031;-86
2021/12/11 03:01:11;;;;;;;13.85;5.75;;;;;;;;;;4980815;28;20038;-87
2021/12/11 03:03:41;;;;;;;15.88;5.97;;;;;;;;;;4986001;28;20105;-88
2021/12/11 03:06:17;;;;;;;13.55;5.18;;;;;;;;;;4992409;28;20085;-86
2021/12/11 03:08:43;;;;;;;17.23;3.95;;;;;;;;;;4995548;28;20089;-86
2021/12/11 03:11:13;;;;;;;15.73;4.47;;;;;;;;;;4998955;28;20057;-90
2021/12/11 03:13:40;;;;;;;12.07;4.72;;;;;;;;;;4992378;28;20401;-91
2021/12/11 03:16:10;;;;;;;17.58;6.90;;;;;;;;;;5005018;28;20077;-91
2021/12/11 03:18:38;;;;;;;27.67;12.38;;;;;;;;;;5007568;28;20037;-90
2021/12/11 03:21:05;;;;;;;44.58;16.20;;;;;;;;;;4996891;28;20066;-92
2021/12/11 03:23:54;;;;;;;51.60;18.70;;;;;;;;;;4993967;28;20130;-87
2021/12/11 03:32:28;;;;;;;86.65;25.73;;;;;;;;;;5007789;28;20069;-92
2021/12/11 03:34:55;;;;;;;58.38;19.25;;;;;;;;;;4995534;28;20125;-84
2021/12/11 03:37:22;;;;;;;65.80;20.05;;;;;;;;;;4992941;28;20096;-91
2021/12/11 03:40:15;;;;;;;60.42;19.95;;;;;;;;;;4993321;28;20038;-88
2021/12/11 03:42:42;;;;;;;47.40;14.82;;;;;;;;;;4981085;28;20038;-88
2021/12/11 03:45:15;;;;;;;39.83;12.90;;;;;;;;;;4996448;28;20062;-87
2021/12/11 03:47:44;;;;;;;54.72;16.33;;;;;;;;;;4999273;28;20366;-88
2021/12/11 03:50:29;;;;;;;48.03;17.58;;;;;;;;;;4999411;28;20065;-87
2021/12/11 03:52:55;;;;;;;52.95;19.02;;;;;;;;;;4998253;28;20545;-87
2021/12/11 03:55:28;;;;;;;73.20;24.23;;;;;;;;;;4997754;28;20362;-87
2021/12/11 03:57:59;;;;;;;62.33;22.60;;;;;;;;;;4996575;28;20060;-86
2021/12/11 04:00:28;;;;;;;56.47;22.33;;;;;;;;;;4997871;28;20034;-87
2021/12/11 04:03:02;;;;;;;55.13;23.38;;;;;;;;;;4998128;28;20107;-86
2021/12/11 04:05:29;;;;;;;55.20;23.15;;;;;;;;;;4998347;28;20735;-87
2021/12/11 04:07:57;;;;;;;53.65;23.98;;;;;;;;;;4992075;28;20035;-88
2021/12/11 04:10:29;;;;;;;53.13;22.55;;;;;;;;;;4978861;28;20043;-86
2021/12/11 04:12:59;;;;;;;69.65;23.08;;;;;;;;;;4996003;28;20181;-86
2021/12/11 04:15:29;;;;;;;52.65;24.02;;;;;;;;;;4997569;28;20039;-87
2021/12/11 04:17:55;;;;;;;52.78;24.20;;;;;;;;;;4994857;28;20857;-87
2021/12/11 04:20:23;;;;;;;46.92;22.83;;;;;;;;;;4991075;28;20121;-87
2021/12/11 04:23:05;;;;;;;47.63;23.33;;;;;;;;;;4983301;28;20033;-87
2021/12/11 04:25:31;;;;;;;46.83;24.63;;;;;;;;;;4993899;28;20038;-90
2021/12/11 04:27:58;;;;;;;41.35;20.80;;;;;;;;;;4995623;28;20033;-89
2021/12/11 04:30:25;;;;;;;61.30;24.15;;;;;;;;;;4986178;28;20050;-88
2021/12/11 04:33:00;;;;;;;57.10;24.55;;;;;;;;;;4984700;28;20069;-89
2021/12/11 04:35:29;;;;;;;52.40;23.20;;;;;;;;;;4992155;28;20045;-90
2021/12/11 04:38:21;;;;;;;62.78;24.05;;;;;;;;;;4991729;28;20038;-90
2021/12/11 04:40:52;;;;;;;71.43;23.80;;;;;;;;;;4991508;28;20042;-90
2021/12/11 04:43:38;;;;;;;65.80;23.52;;;;;;;;;;4994680;28;20041;-89
2021/12/11 04:46:08;;;;;;;63.85;23.92;;;;;;;;;;4987998;28;20132;-92
2021/12/11 04:48:48;;;;;;;61.13;23.40;;;;;;;;;;4991110;28;20038;-89
2021/12/11 04:56:48;;;;;;;144.15;41.30;;;;;;;;;;4993989;28;20374;-88
2021/12/11 04:59:25;;;;;;;128.10;40.60;;;;;;;;;;4990197;28;20385;-89
2021/12/11 05:11:04;;;;;;;113.50;32.88;;;;;;;;;;4968992;28;20051;-89
2021/12/11 05:13:33;;;;;;;104.47;30.75;;;;;;;;;;4978070;28;20497;-87
2021/12/11 05:16:01;;;;;;;91.15;28.98;;;;;;;;;;4642840;28;9999740;-88
2021/12/11 05:18:41;;;;;;;94.85;30.10;;;;;;;;;;4994155;28;20042;-90
2021/12/11 05:21:13;;;;;;;97.07;29.40;;;;;;;;;;4990701;28;20069;-88
2021/12/11 05:23:49;;;;;;;87.35;29.15;;;;;;;;;;4993423;28;20042;-88
2021/12/11 05:26:15;;;;;;;100.18;27.00;;;;;;;;;;4992163;28;20054;-88
2021/12/11 05:28:47;;;;;;;97.57;29.40;;;;;;;;;;4989723;28;20081;-89
2021/12/11 05:31:13;;;;;;;90.20;27.73;;;;;;;;;;4985063;28;20034;-88
2021/12/11 05:33:45;;;;;;;93.57;32.38;;;;;;;;;;4989125;28;20030;-88
2021/12/11 05:36:13;;;;;;;97.97;36.35;;;;;;;;;;4993532;28;20027;-88
2021/12/11 05:38:43;;;;;;;103.57;36.13;;;;;;;;;;4993167;28;20513;-89
2021/12/11 05:41:12;;;;;;;102.80;35.95;;;;;;;;;;4992880;28;20399;-89
2021/12/11 05:43:40;;;;;;;109.40;38.63;;;;;;;;;;4993356;28;20121;-88
2021/12/11 05:46:07;;;;;;;148.65;44.67;;;;;;;;;;4993455;28;20035;-89
2021/12/11 05:48:36;;;;;;;113.75;36.15;;;;;;;;;;4991140;28;20042;-90
2021/12/11 05:51:04;;;;;;;85.43;26.92;;;;;;;;;;4988567;28;20108;-89
2021/12/11 05:53:32;;;;;;;80.80;21.77;;;;;;;;;;4991953;28;20084;-89
2021/12/11 05:56:00;;;;;;;73.35;16.65;;;;;;;;;;4991689;28;20026;-88
2021/12/11 05:58:47;;;;;;;68.35;15.27;;;;;;;;;;4982858;28;20060;-89
2021/12/11 06:01:17;;;;;;;61.60;13.90;;;;;;;;;;4984897;28;20421;-88
2021/12/11 06:03:44;;;;;;;72.50;14.52;;;;;;;;;;4992584;28;20091;-88
2021/12/11 06:06:11;;;;;;;55.67;14.32;;;;;;;;;;4992622;28;20049;-89
2021/12/11 06:08:38;;;;;;;41.92;9.07;;;;;;;;;;4987411;28;20050;-91
2021/12/11 06:11:05;;;;;;;27.13;6.30;;;;;;;;;;4983093;28;20153;-89
2021/12/11 06:13:49;;;;;;;14.55;3.78;;;;;;;;;;5111078;27;20496;-88
2021/12/11 06:16:16;;;;;;;15.20;5.05;;;;;;;;;;5093382;28;20073;-88
2021/12/11 06:18:44;;;;;;;19.80;4.65;;;;;;;;;;5092936;28;20102;-88
2021/12/11 06:21:11;;;;;;;14.52;4.22;;;;;;;;;;5111762;28;20098;-88
2021/12/11 06:23:37;;;;;;;13.35;4.15;;;;;;;;;;5111387;28;20553;-86
2021/12/11 06:26:05;;;;;;;21.58;4.07;;;;;;;;;;5093168;28;20361;-87
2021/12/11 06:28:32;;;;;;;15.93;4.35;;;;;;;;;;5111381;28;20016;-87
2021/12/11 06:30:59;;;;;;;23.10;4.22;;;;;;;;;;5092792;28;20016;-87
2021/12/11 06:33:26;;;;;;;12.55;3.72;;;;;;;;;;5093429;28;20036;-87
2021/12/11 06:35:56;;;;;;;14.52;3.45;;;;;;;;;;5093656;28;20028;-87
2021/12/11 06:38:24;;;;;;;12.55;3.55;;;;;;;;;;5105813;28;20049;-89
2021/12/11 06:40:51;;;;;;;11.07;3.40;;;;;;;;;;5113613;28;20023;-87
2021/12/11 06:43:17;;;;;;;12.85;4.10;;;;;;;;;;5113437;28;20096;-87
2021/12/11 06:45:44;;;;;;;11.95;3.90;;;;;;;;;;5092087;28;20012;-86
2021/12/11 06:48:13;;;;;;;10.80;3.40;;;;;;;;;;5092300;28;20019;-87
2021/12/11 06:50:40;;;;;;;13.00;3.35;;;;;;;;;;5093427;28;20022;-87
2021/12/11 06:53:09;;;;;;;11.90;4.13;;;;;;;;;;5092732;28;20028;-87
2021/12/11 06:55:35;;;;;;;10.55;3.60;;;;;;;;;;5092827;28;20039;-88
2021/12/11 06:58:01;;;;;;;13.75;4.07;;;;;;;;;;5091682;28;20449;-87
2021/12/11 07:00:28;;;;;;;10.85;3.75;;;;;;;;;;5102890;28;20481;-87
2021/12/11 07:02:55;;;;;;;9.60;3.47;;;;;;;;;;5108123;28;20130;-86
2021/12/11 07:05:21;;;;;;;17.17;4.45;;;;;;;;;;5107475;28;20771;-86
2021/12/11 07:07:48;;;;;;;10.45;4.18;;;;;;;;;;5106818;28;20093;-86
2021/12/11 07:10:17;;;;;;;10.90;4.63;;;;;;;;;;5108281;28;20019;-86
2021/12/11 07:12:45;;;;;;;15.25;4.90;;;;;;;;;;5107358;28;20044;-88
2021/12/11 07:15:11;;;;;;;15.55;5.07;;;;;;;;;;5104604;28;20020;-86
2021/12/11 07:17:38;;;;;;;14.82;4.85;;;;;;;;;;5104136;28;20458;-88
2021/12/11 07:20:05;;;;;;;13.73;4.75;;;;;;;;;;5101986;28;20023;-87
2021/12/11 07:22:32;;;;;;;18.35;5.25;;;;;;;;;;5108420;28;20016;-87
2021/12/11 07:25:01;;;;;;;15.50;5.63;;;;;;;;;;5095432;28;20494;-86
2021/12/11 07:27:29;;;;;;;19.13;6.57;;;;;;;;;;5094893;28;20051;-86
2021/12/11 07:29:55;;;;;;;19.45;5.80;;;;;;;;;;5094344;28;20160;-86
2021/12/11 07:32:21;;;;;;;10.65;4.05;;;;;;;;;;5094756;28;20016;-90
2021/12/11 07:34:52;;;;;;;15.18;5.05;;;;;;;;;;5091046;28;20404;-89
2021/12/11 07:37:18;;;;;;;20.45;5.65;;;;;;;;;;5093354;28;20070;-88
2021/12/11 07:39:46;;;;;;;15.80;5.65;;;;;;;;;;5090420;28;20366;-87
2021/12/11 07:42:12;;;;;;;22.42;5.05;;;;;;;;;;5093606;28;20020;-88
2021/12/11 07:44:38;;;;;;;13.50;4.65;;;;;;;;;;5099375;28;20020;-88
2021/12/11 07:47:08;;;;;;;11.60;3.78;;;;;;;;;;5098813;28;20031;-89
2021/12/11 07:49:34;;;;;;;15.23;4.22;;;;;;;;;;5091870;28;20021;-87
2021/12/11 07:52:01;;;;;;;12.13;4.25;;;;;;;;;;5088998;28;20069;-86
2021/12/11 07:54:27;;;;;;;18.08;4.65;;;;;;;;;;5094702;28;20028;-89
2021/12/11 07:56:54;;;;;;;16.17;6.82;;;;;;;;;;5095060;28;20080;-89
2021/12/11 07:59:24;;;;;;;12.90;5.25;;;;;;;;;;5092719;28;20008;-86
2021/12/11 08:01:52;;;;;;;18.90;7.40;;;;;;;;;;5082310;28;20031;-87
2021/12/11 08:04:18;;;;;;;16.98;6.38;;;;;;;;;;5074661;28;20085;-88
2021/12/11 08:06:44;;;;;;;18.17;6.88;;;;;;;;;;5085284;28;20020;-89
2021/12/11 08:09:12;;;;;;;21.42;8.45;;;;;;;;;;5094902;28;20016;-87
2021/12/11 08:11:39;;;;;;;27.55;8.57;;;;;;;;;;5090452;28;20027;-88
2021/12/11 08:14:06;;;;;;;29.23;9.15;;;;;;;;;;5091849;28;20850;-89
2021/12/11 08:16:44;;;;;;;29.05;9.00;;;;;;;;;;5094637;28;20095;-89
2021/12/11 08:19:10;;;;;;;38.47;8.82;;;;;;;;;;5094039;28;20081;-87
2021/12/11 08:21:36;;;;;;;19.42;7.30;;;;;;;;;;5094423;28;20020;-87
2021/12/11 08:24:04;;;;;;;20.77;6.93;;;;;;;;;;5094056;28;20050;-87
2021/12/11 08:26:31;;;;;;;15.18;4.97;;;;;;;;;;5095351;28;20065;-87
2021/12/11 08:28:57;;;;;;;15.13;4.15;;;;;;;;;;5094059;28;20019;-87
2021/12/11 08:31:24;;;;;;;15.20;4.88;;;;;;;;;;5094476;28;20016;-88
2021/12/11 08:33:51;;;;;;;17.75;4.43;;;;;;;;;;5094026;28;20464;-87
2021/12/11 08:36:17;;;;;;;17.45;4.60;;;;;;;;;;5092896;28;20020;-87
2021/12/11 08:38:44;;;;;;;23.63;4.45;;;;;;;;;;5093839;28;20016;-87
2021/12/11 08:41:12;;;;;;;13.10;4.90;;;;;;;;;;5094169;28;20019;-86
2021/12/11 08:43:38;;;;;;;15.32;4.80;;;;;;;;;;5089081;28;20075;-87
2021/12/11 08:46:11;;;;;;;16.48;4.60;;;;;;;;;;5073582;28;20012;-87
2021/12/11 08:48:43;;;;;;;14.82;4.00;;;;;;;;;;5074987;28;20021;-87
2021/12/11 08:51:15;;;;;;;19.63;3.72;;;;;;;;;;5089923;28;20481;-87
2021/12/11 08:53:41;;;;;;;13.82;3.97;;;;;;;;;;5089562;28;20397;-86
2021/12/11 08:56:09;;;;;;;13.57;4.50;;;;;;;;;;5090140;28;20029;-87
2021/12/11 08:58:36;;;;;;;20.38;5.70;;;;;;;;;;5093534;28;20076;-87
2021/12/11 09:01:31;;;;;;;16.50;4.90;;;;;;;;;;5092660;28;20043;-87
2021/12/11 09:04:10;;;;;;;10.82;1.60;;;;;;;;;;5075926;28;20028;-87
2021/12/11 09:06:40;;;;;;;3.83;1.30;;;;;;;;;;5094784;28;20476;-87
2021/12/11 09:09:10;;;;;;;4.93;1.60;;;;;;;;;;5081278;28;20145;-88
2021/12/11 09:11:43;;;;;;;9.20;2.08;;;;;;;;;;5072769;28;20101;-86
2021/12/11 09:14:16;;;;;;;4.75;1.67;;;;;;;;;;5074514;28;20028;-87
2021/12/11 09:16:42;;;;;;;10.52;3.30;;;;;;;;;;5074257;28;20051;-87
2021/12/11 09:19:12;;;;;;;13.63;4.03;;;;;;;;;;5072854;28;20029;-87
2021/12/11 09:21:48;;;;;;;14.57;3.40;;;;;;;;;;5072630;28;20056;-87
2021/12/11 09:24:23;;;;;;;8.48;3.25;;;;;;;;;;5072884;28;20050;-87
2021/12/11 09:26:58;;;;;;;9.40;3.20;;;;;;;;;;5088628;28;20020;-88
2021/12/11 09:29:29;;;;;;;7.38;2.28;;;;;;;;;;5092921;28;20031;-87
2021/12/11 09:32:08;;;;;;;12.43;2.47;;;;;;;;;;5092430;28;20016;-88
2021/12/11 09:34:38;;;;;;;7.65;2.38;;;;;;;;;;5092933;28;20028;-87
2021/12/11 09:37:05;;;;;;;5.68;1.90;;;;;;;;;;5092847;28;20571;-87
2021/12/11 09:39:37;;;;;;;8.48;2.17;;;;;;;;;;5092617;28;20034;-87
2021/12/11 09:42:03;;;;;;;8.60;2.05;;;;;;;;;;5092868;28;20023;-87
2021/12/11 09:44:35;;;;;;;7.80;1.88;;;;;;;;;;5092575;28;20016;-87
2021/12/11 09:47:05;;;;;;;16.17;2.30;;;;;;;;;;5092252;28;20024;-87
2021/12/11 09:49:34;;;;;;;4.57;1.92;;;;;;;;;;5092714;28;20362;-87
2021/12/11 09:52:13;;;;;;;12.55;3.00;;;;;;;;;;5092442;28;20058;-86
2021/12/11 09:54:40;;;;;;;26.60;3.80;;;;;;;;;;5092434;28;20466;-87
2021/12/11 09:57:13;;;;;;;15.70;5.18;;;;;;;;;;5092352;28;20103;-87
2021/12/11 09:59:39;;;;;;;15.77;5.72;;;;;;;;;;5092408;28;20016;-86
2021/12/11 10:02:11;;;;;;;21.38;8.02;;;;;;;;;;5092214;28;20024;-86
2021/12/11 10:04:40;;;;;;;27.50;10.88;;;;;;;;;;5092730;28;20020;-87
2021/12/11 10:07:26;;;;;;;46.60;20.35;;;;;;;;;;5092772;28;20023;-87
2021/12/11 10:09:54;;;;;;;50.80;24.48;;;;;;;;;;5092254;28;20028;-87
2021/12/11 10:12:26;;;;;;;55.58;26.63;;;;;;;;;;5091880;28;20090;-87
2021/12/11 10:14:54;;;;;;;66.75;28.48;;;;;;;;;;5092711;28;20361;-87
2021/12/11 10:17:25;;;;;;;79.05;32.65;;;;;;;;;;5092642;28;20040;-87
2021/12/11 10:19:53;;;;;;;76.22;32.40;;;;;;;;;;5092108;28;20339;-87
2021/12/11 10:22:22;;;;;;;71.90;34.15;;;;;;;;;;5092402;28;20030;-86
2021/12/11 10:24:52;;;;;;;74.13;34.67;;;;;;;;;;5093707;28;20460;-87
2021/12/11 10:27:20;;;;;;;66.03;32.22;;;;;;;;;;5092497;28;20020;-86
2021/12/11 10:29:48;;;;;;;71.25;31.77;;;;;;;;;;5092120;28;20017;-93
2021/12/11 10:32:17;;;;;;;78.78;31.88;;;;;;;;;;5092336;28;20028;-87
2021/12/11 10:34:46;;;;;;;70.30;35.25;;;;;;;;;;5093471;28;20016;-87
2021/12/11 10:37:15;;;;;;;97.05;36.30;;;;;;;;;;5092421;28;20099;-87
2021/12/11 10:39:45;;;;;;;97.03;37.28;;;;;;;;;;5092177;28;20024;-87
2021/12/11 10:42:11;;;;;;;99.30;35.92;;;;;;;;;;5093437;28;20024;-87
2021/12/11 10:44:40;;;;;;;85.63;34.55;;;;;;;;;;5092056;28;20066;-88
2021/12/11 10:47:12;;;;;;;89.65;35.97;;;;;;;;;;5092197;28;20127;-87
2021/12/11 10:49:39;;;;;;;94.53;37.10;;;;;;;;;;5091804;28;20052;-88
2021/12/11 10:52:15;;;;;;;79.03;36.85;;;;;;;;;;5091928;28;20145;-87
2021/12/11 10:54:41;;;;;;;90.07;36.85;;;;;;;;;;5092213;28;20050;-87
2021/12/11 10:57:08;;;;;;;90.13;39.70;;;;;;;;;;5092248;28;20023;-87
2021/12/11 10:59:37;;;;;;;89.13;38.42;;;;;;;;;;5093828;28;20470;-88
2021/12/11 11:02:14;;;;;;;83.15;38.08;;;;;;;;;;5107889;28;20476;-91
2021/12/11 11:04:43;;;;;;;83.55;37.45;;;;;;;;;;5116287;28;20059;-91
2021/12/11 11:07:09;;;;;;;79.68;34.20;;;;;;;;;;5116394;28;20022;-87
2021/12/11 11:09:36;;;;;;;81.53;34.88;;;;;;;;;;5116291;28;20313;-86
2021/12/11 11:12:05;;;;;;;80.55;35.42;;;;;;;;;;5116815;28;20047;-87
2021/12/11 11:14:32;;;;;;;95.63;39.72;;;;;;;;;;5117469;28;20073;-87
2021/12/11 11:17:03;;;;;;;99.75;44.65;;;;;;;;;;5115973;28;20027;-87
2021/12/11 11:19:30;;;;;;;109.53;47.03;;;;;;;;;;5116034;28;20019;-87
2021/12/11 11:21:58;;;;;;;117.70;47.22;;;;;;;;;;5116910;28;20098;-87
2021/12/11 11:24:31;;;;;;;94.07;42.92;;;;;;;;;;5117030;28;20065;-88
2021/12/11 11:26:58;;;;;;;115.70;46.17;;;;;;;;;;5115787;28;20019;-87
2021/12/11 11:29:26;;;;;;;120.97;51.33;;;;;;;;;;5115713;28;20023;-87
2021/12/11 11:32:01;;;;;;;105.00;46.25;;;;;;;;;;5116369;28;20108;-87
2021/12/11 11:34:31;;;;;;;89.80;42.88;;;;;;;;;;5115740;28;20337;-87
2021/12/11 11:36:59;;;;;;;89.82;41.58;;;;;;;;;;5092710;28;20030;-87
2021/12/11 11:39:26;;;;;;;87.97;39.15;;;;;;;;;;5090898;28;20642;-87
2021/12/11 11:41:54;;;;;;;77.50;34.25;;;;;;;;;;5094864;28;20458;-86
2021/12/11 11:44:24;;;;;;;70.15;32.58;;;;;;;;;;5096096;28;20024;-87
2021/12/11 11:46:51;;;;;;;74.90;33.08;;;;;;;;;;5095088;28;20016;-86
2021/12/11 11:49:20;;;;;;;70.40;32.10;;;;;;;;;;5099323;28;20030;-87
2021/12/11 11:51:50;;;;;;;67.88;30.63;;;;;;;;;;5084633;28;20024;-88
2021/12/11 11:54:17;;;;;;;68.35;30.60;;;;;;;;;;5096307;28;20020;-87
2021/12/11 11:56:46;;;;;;;67.38;28.30;;;;;;;;;;5094445;28;20027;-87
2021/12/11 11:59:13;;;;;;;67.13;29.20;;;;;;;;;;5094090;28;20023;-87
2021/12/11 12:01:43;;;;;;;66.53;28.95;;;;;;;;;;5094440;28;20798;-87
2021/12/11 12:04:11;;;;;;;66.68;29.67;;;;;;;;;;5094182;28;20028;-88
2021/12/11 12:06:38;;;;;;;60.63;27.77;;;;;;;;;;5094502;28;20016;-86
2021/12/11 12:09:07;;;;;;;61.15;27.33;;;;;;;;;;5095032;28;20366;-90
2021/12/11 12:11:34;;;;;;;58.05;26.63;;;;;;;;;;5093576;28;20462;-86
2021/12/11 12:14:01;;;;;;;66.95;31.98;;;;;;;;;;5094117;28;20085;-86
2021/12/11 12:16:29;;;;;;;80.18;38.28;;;;;;;;;;5095588;28;20473;-87
2021/12/11 12:18:56;;;;;;;78.78;36.40;;;;;;;;;;5094148;28;20020;-88
2021/12/11 12:21:22;;;;;;;83.85;40.58;;;;;;;;;;5094555;28;20046;-87
2021/12/11 12:23:49;;;;;;;97.53;44.67;;;;;;;;;;5094047;28;20038;-87
2021/12/11 12:26:20;;;;;;;92.53;42.13;;;;;;;;;;5094066;28;20012;-87
2021/12/11 12:28:48;;;;;;;80.10;36.80;;;;;;;;;;5094346;28;20035;-87
2021/12/11 12:31:21;;;;;;;83.25;37.60;;;;;;;;;;5094211;28;20111;-87
2021/12/11 12:33:48;;;;;;;87.50;39.35;;;;;;;;;;5093959;28;20104;-88
2021/12/11 12:36:15;;;;;;;91.70;40.30;;;;;;;;;;5089454;28;20019;-87
2021/12/11 12:38:42;;;;;;;95.70;40.65;;;;;;;;;;5073412;28;20108;-88
2021/12/11 12:41:09;;;;;;;104.50;42.70;;;;;;;;;;5073083;28;20020;-90
2021/12/11 12:46:13;;;;;;;106.20;48.47;;;;;;;;;;5094856;28;20031;-87
2021/12/11 12:48:39;;;;;;;103.93;46.95;;;;;;;;;;5093604;28;20012;-87
2021/12/11 12:51:08;;;;;;;100.95;43.88;;;;;;;;;;5093492;28;20461;-88
2021/12/11 12:53:35;;;;;;;97.10;44.35;;;;;;;;;;5093449;28;20035;-87
2021/12/11 12:56:10;;;;;;;92.15;42.50;;;;;;;;;;5094925;28;20107;-88
2021/12/11 12:58:56;;;;;;;105.07;43.25;;;;;;;;;;5093842;28;20038;-88
2021/12/11 13:01:31;;;;;;;100.82;42.95;;;;;;;;;;5094688;28;20363;-88
2021/12/11 13:04:01;;;;;;;92.47;39.70;;;;;;;;;;5093219;28;20027;-88
2021/12/11 13:06:31;;;;;;;87.85;37.88;;;;;;;;;;5094032;28;20019;-89
2021/12/11 13:09:11;;;;;;;87.18;36.78;;;;;;;;;;5093696;28;20020;-89
2021/12/11 13:12:00;;;;;;;81.60;36.45;;;;;;;;;;5093508;28;20020;-88
2021/12/11 13:14:28;;;;;;;92.32;40.10;;;;;;;;;;5058099;28;20085;-88
2021/12/11 13:16:57;;;;;;;95.78;38.25;;;;;;;;;;5079916;28;20024;-88
2021/12/11 13:19:29;;;;;;;96.85;38.03;;;;;;;;;;5093159;28;20046;-89
2021/12/11 13:21:57;;;;;;;90.10;36.05;;;;;;;;;;5092650;28;20145;-88
2021/12/11 13:24:24;;;;;;;81.35;35.10;;;;;;;;;;5091303;28;20057;-87
2021/12/11 13:26:55;;;;;;;91.97;36.15;;;;;;;;;;5092811;28;20353;-88
2021/12/11 13:29:23;;;;;;;92.65;38.85;;;;;;;;;;5093013;28;20013;-88
2021/12/11 13:31:51;;;;;;;112.15;45.08;;;;;;;;;;5093055;28;20019;-88
2021/12/11 13:34:18;;;;;;;101.18;46.03;;;;;;;;;;5092671;28;20016;-88
2021/12/11 13:36:46;;;;;;;79.68;34.65;;;;;;;;;;5093167;28;20107;-87
2021/12/11 13:39:13;;;;;;;81.35;34.30;;;;;;;;;;5094171;28;20051;-88
2021/12/11 13:41:42;;;;;;;75.95;33.30;;;;;;;;;;5092024;28;20454;-88
2021/12/11 13:44:09;;;;;;;88.00;35.65;;;;;;;;;;5093087;28;20095;-88
2021/12/11 13:46:35;;;;;;;97.25;39.13;;;;;;;;;;5076373;28;20092;-88
2021/12/11 13:49:02;;;;;;;108.68;45.47;;;;;;;;;;5085180;28;20020;-87
2021/12/11 13:51:31;;;;;;;109.18;45.63;;;;;;;;;;5072644;28;20374;-88
2021/12/11 13:53:58;;;;;;;104.97;46.28;;;;;;;;;;5075576;28;20043;-92
2021/12/11 13:56:29;;;;;;;107.22;45.50;;;;;;;;;;5093248;28;20020;-93
2021/12/11 13:58:56;;;;;;;99.75;43.53;;;;;;;;;;5093178;28;20501;-93
2021/12/11 14:01:24;;;;;;;99.32;42.00;;;;;;;;;;5092906;28;20015;-92
2021/12/11 14:03:51;;;;;;;87.30;39.15;;;;;;;;;;5093230;28;20446;-87
2021/12/11 14:06:18;;;;;;;81.45;34.50;;;;;;;;;;5086575;28;20032;-87
2021/12/11 14:08:46;;;;;;;81.65;31.92;;;;;;;;;;5086467;28;20392;-88
2021/12/11 14:11:14;;;;;;;67.50;28.92;;;;;;;;;;5090626;28;20024;-89
2021/12/11 14:13:41;;;;;;;54.53;24.42;;;;;;;;;;5088178;28;20052;-90
2021/12/11 14:16:08;;;;;;;59.42;26.60;;;;;;;;;;5091178;28;20012;-90
2021/12/11 14:18:36;;;;;;;67.15;27.48;;;;;;;;;;5092650;28;20046;-89
2021/12/11 14:21:04;;;;;;;64.40;24.52;;;;;;;;;;5091477;28;20027;-87
2021/12/11 14:23:34;;;;;;;48.60;20.23;;;;;;;;;;5092803;28;20013;-87
2021/12/11 14:26:03;;;;;;;49.40;22.42;;;;;;;;;;5026631;28;20041;-89
2021/12/11 14:28:30;;;;;;;46.72;20.40;;;;;;;;;;5013490;28;20498;-87
2021/12/11 14:30:58;;;;;;;52.83;21.63;;;;;;;;;;5006230;28;20049;-88
2021/12/11 14:33:25;;;;;;;44.63;20.40;;;;;;;;;;5012213;28;20043;-91
2021/12/11 14:35:52;;;;;;;53.35;21.55;;;;;;;;;;5018042;28;20036;-88
2021/12/11 14:38:18;;;;;;;56.95;24.45;;;;;;;;;;5015042;28;20029;-88
2021/12/11 14:40:47;;;;;;;58.22;25.85;;;;;;;;;;5015640;28;20018;-88
2021/12/11 14:43:14;;;;;;;72.15;30.42;;;;;;;;;;5014910;28;20018;-89
2021/12/11 14:45:42;;;;;;;71.32;30.75;;;;;;;;;;5016584;28;20021;-88
2021/12/11 14:48:10;;;;;;;89.18;35.30;;;;;;;;;;5012194;28;20529;-90
2021/12/11 14:50:38;;;;;;;82.60;36.17;;;;;;;;;;5015864;28;20027;-90
2021/12/11 14:53:05;;;;;;;85.20;39.10;;;;;;;;;;5028602;28;20527;-88
2021/12/11 14:55:35;;;;;;;88.88;39.60;;;;;;;;;;5013647;28;20057;-87
2021/12/11 14:58:01;;;;;;;80.90;36.95;;;;;;;;;;5018445;28;20511;-88
2021/12/11 15:00:29;;;;;;;74.03;34.65;;;;;;;;;;5023343;28;20025;-88
2021/12/11 15:02:56;;;;;;;72.13;33.05;;;;;;;;;;5020961;28;20388;-88
2021/12/11 15:05:25;;;;;;;70.38;33.38;;;;;;;;;;5014479;28;20010;-88
2021/12/11 15:07:52;;;;;;;78.65;32.50;;;;;;;;;;5023665;28;20021;-88